Richard Nguyen

Recruteur - Dijon
10 Sept 2028
Dimanche
Processus

Personnalité

Adaptabilité (15) Ambition (17) Controverse (13) Loyauté (15) Pression (4) Professionnalisme (9) Sportivité (19) Tempérament (9)

Profil

Style d'entraînement Démocratique
Diplôme National A
Détermination 4
Gestion des joueurs 9
Motivation 4
Discipline 12
Satisfaction professionnelle
100%
Fatigue
0%
Rôle Recruteur
Salaire 34.2K p/s
Contrat 14.03.2029

Performance

Comportement Bon
Efficacité de l'entraînement
43%
Développement des joueurs
45%
Prévention des blessures
50%
Mise en place tactique
50%

Événements récents

A participé à une réunion de recrutement maintenant
A recommandé une cible de transfert maintenant
A participé à une réunion de recrutement 7j
A recommandé une cible de transfert 7j
A recommandé une cible de transfert 7j
A recommandé une cible de transfert 7j
A recommandé une cible de transfert 14j
A recommandé une cible de transfert 14j

Suivi en cours

122
Joueur Club Statut Capacité Confiance Observé Dernière observation Dernier vote
Felix Goddard Valenciennes Actif 103 / 107 65% 1 07.08.2028 Approuver
Aboubacar Fade Clermont Foot Actif 81 / 84 65% 1 12.06.2028 Approuver
Hervé Boua Dié Valenciennes Actif 90 / 99 65% 1 01.01.2028 Approuver
Victor Hernandez Santa Fe Actif 121 / 129 40% 2 30.12.2027 -
Louis Leroux FC Nantes Actif 137 / 139 40% 1 30.12.2027 -
Onyeuche Ujunwa Ikorodu City Actif 89 / 83 40% 4 29.12.2027 -
Colin Guske Orlando City Actif 102 / 81 40% 1 29.12.2027 -
Kelian Le Pironnec Mirandés Actif 88 / 109 40% 1 28.12.2027 -
Daniel Banjaqui Benfica Actif 114 / 129 40% 1 28.12.2027 -
Matias Siltanen Malmo FF Actif 127 / 113 40% 2 23.12.2027 -
Tiago Gordillo San Miguel Actif 90 / 112 40% 2 20.12.2027 -
Juan Camilo Córdoba Deportivo Pereira Actif 75 / 74 40% 1 20.12.2027 -
Jason Witsel PSV Actif 120 / 131 40% 4 19.12.2027 -
Olivier Mambwa Young Boys Actif 108 / 107 40% 1 19.12.2027 -
Andrija Bulatović Chamois Niortais Actif 118 / 127 40% 3 17.12.2027 -
Toheeb Adebayo Shooting Stars Actif 77 / 70 40% 2 16.12.2027 -
Lucas Camejo River Plate Actif 86 / 87 40% 2 16.12.2027 -
Melvin Vučenović Persson Atvidaberg Actif 84 / 77 40% 1 14.12.2027 -
Joel Ezra Enyimba Actif 95 / 95 40% 3 12.12.2027 -
Diego Vargas Universidad de Concepcion Actif 93 / 83 40% 1 10.12.2027 -
Francisco Machis Llaneros Actif 79 / 95 40% 1 05.12.2027 -
Matteo Pérez Vinlöf Dinamo Zagreb Actif 135 / 137 40% 1 05.12.2027 -
Gideon Manaseh Ikorodu City Actif 84 / 90 40% 1 03.12.2027 -
Lucas Nicol Mjondalen Actif 68 / 105 40% 2 29.11.2027 -
Sadiq Adams El-Kanemi Warriors Actif 74 / 75 40% 1 29.11.2027 -
Idriss Ashiru Kariobangi Sharks Actif 64 / 83 40% 3 26.11.2027 -
Daniel Idoko Ikorodu City Actif 99 / 90 40% 2 23.11.2027 -
Oscar Steinke Brånby Hammarby Actif 116 / 102 40% 1 23.11.2027 -
Kevin Otiende Nairobi United Actif 59 / 61 40% 2 19.11.2027 -
Olivier Leroux Mouscron Actif 99 / 105 40% 1 18.11.2027 -
Olaniyi Saheed Kwara United Actif 96 / 107 40% 2 17.11.2027 -
Ivan Borges Defensores Actif 89 / 96 40% 1 17.11.2027 -
Hosea Michael Remo Stars Actif 81 / 96 40% 1 16.11.2027 -
Honest Ahanor Atalanta Actif 137 / 139 40% 1 12.11.2027 -
Agustín Obregón River Plate Actif 115 / 103 40% 1 04.11.2027 -
Mohamed Moussa Koïta Mathare United Actif 93 / 86 40% 1 01.11.2027 -
Issa Yusuf Shooting Stars Actif 91 / 96 40% 1 06.10.2027 -
Amine Boukamir Charleroi Actif 110 / 123 40% 1 06.10.2027 -
Nahuel Leivas Montevideo City Torque Actif 91 / 105 40% 1 05.10.2027 -
Esteban de Lima Tacuarembo Actif 93 / 97 40% 1 05.10.2027 -
Ahmad Ngouyamsa US Creteil Actif 101 / 99 58% 1 21.06.2027 -
Malik Mothersille Stockport County Actif 117 / 105 40% 2 03.06.2027 -
Dennis Cirkin Queens Park Rangers Actif 124 / 136 40% 2 31.05.2027 -
Adam Randell Bristol City Actif 139 / 128 40% 3 30.05.2027 -
Oliver Skipp Leicester City Actif 135 / 142 40% 1 30.05.2027 -
Malick Mbaye Zulte Waregem Actif 114 / 105 40% 3 29.05.2027 -
David Turnbull Cardiff City Actif 125 / 108 40% 1 29.05.2027 -
Azor Matusiwa Ipswich Town Actif 131 / 143 40% 3 28.05.2027 -
Will Fish Cardiff City Actif 130 / 129 40% 1 28.05.2027 -
Lucas Høgsberg RC Strasbourg Actif 132 / 128 40% 2 25.05.2027 -
Mamoutou Berthé US Bougouba Actif 86 / 89 40% 1 24.05.2027 -
Leo Castledine Middlesbrough Actif 137 / 121 40% 1 24.05.2027 -
Jack Currie Oxford United Actif 128 / 131 40% 1 22.05.2027 -
Jacques Ekomié Wrexham Actif 122 / 121 40% 3 20.05.2027 -
Alfie Doughty Millwall Actif 127 / 132 40% 1 20.05.2027 -
Jack Rudoni Coventry City Actif 139 / 135 40% 2 19.05.2027 -
Bosun Lawal Stoke City Actif 122 / 132 40% 1 19.05.2027 -
Chris Mepham West Bromwich Albion Actif 137 / 140 40% 1 17.05.2027 -
Hamza Choudhury Leicester City Actif 121 / 122 40% 1 17.05.2027 -
Harrison Burrows Sheffield United Actif 118 / 140 40% 1 16.05.2027 -
Mohamadou Kanté Crawley Town Actif 117 / 124 40% 1 15.05.2027 -
Amine Sbaï Angers SCO Actif 132 / 123 40% 2 13.05.2027 -
Shea Charles Southampton Actif 139 / 137 40% 2 13.05.2027 -
Harry Clarke Preston Actif 120 / 130 40% 1 13.05.2027 -
Mateus Mané Burnley Actif 130 / 151 40% 1 13.05.2027 -
Ben Sheaf Wrexham Actif 123 / 132 40% 1 10.05.2027 -
Callum Brittain Middlesbrough Actif 126 / 136 40% 1 10.05.2027 -
Jacob Greaves Ipswich Town Actif 131 / 134 40% 1 09.05.2027 -
Derensili Sanches Fernandes Huddersfield Town Actif 124 / 119 40% 2 08.05.2027 -
Sylvester Jasper Standard Liege Actif 129 / 127 40% 2 08.05.2027 -
Thierry Ambrose KV Kortrijk Actif 124 / 135 40% 3 06.05.2027 -
Kristoffer Lund Birmingham Actif 128 / 134 40% 1 06.05.2027 -
Isaiah Jones Luton Town Actif 119 / 127 40% 2 02.05.2027 -
Conor Chaplin Leicester City Actif 125 / 131 40% 1 02.05.2027 -
Joe Gelhardt Hull City Actif 138 / 132 40% 2 01.05.2027 -
Lewis Bate Stockport County Actif 131 / 130 40% 1 30.04.2027 -
Milan van Ewijk Coventry City Actif 126 / 120 40% 1 30.04.2027 -
Tomáš Souček West Ham United Actif 130 / 130 40% 1 29.04.2027 -
Joel Bagan Cardiff City Actif 125 / 109 40% 1 29.04.2027 -
Nicolas Madsen Queens Park Rangers Actif 126 / 139 40% 1 27.04.2027 -
Sorriso Famalicao Actif 122 / 121 40% 2 26.04.2027 -
Pelle Mattsson Norwich City Actif 133 / 131 40% 1 23.04.2027 -
Kenny Tete Fulham Actif 136 / 148 40% 2 22.04.2027 -
Scott Twine Bristol City Actif 124 / 136 40% 1 22.04.2027 -
Abdelkahar Kadri KAA Gent Actif 130 / 112 40% 1 22.04.2027 -
Timothy Fellaini KV Oostende Actif 130 / 127 40% 2 19.04.2027 -
Cristian Cásseres Toulouse FC Actif 123 / 129 40% 1 19.04.2027 -
Youte Estoril Praia Actif 130 / 121 40% 1 19.04.2027 -
Hidemasa Morita Hull City Actif 140 / 146 40% 1 19.04.2027 -
Marcelo Allende Mamelodi Sundowns Actif 126 / 126 40% 1 18.04.2027 -
Jessy Deminguet FC Metz Actif 133 / 135 40% 2 17.04.2027 -
Diego Coppola Paris FC Actif 136 / 141 40% 1 16.04.2027 -
Louis Mouton Angers SCO Actif 127 / 123 40% 1 16.04.2027 -
Darlin Yongwa Norwich City Actif 135 / 125 40% 1 14.04.2027 -
Dries Kompany Mouscron Actif 110 / 111 40% 1 13.04.2027 -
Calum Agius Crewe Alexandra Actif 98 / 95 40% 1 09.04.2027 -
Marley Aké Zulte Waregem Actif 115 / 116 40% 2 08.04.2027 -
Finn Azaz Southampton Actif 126 / 117 40% 1 08.04.2027 -
Oswin Appollis Orlando Pirates Actif 130 / 117 40% 3 06.04.2027 -
Habib Diarra Sunderland Actif 137 / 140 40% 2 06.04.2027 -
Yaimar Medina Racing Genk Actif 120 / 126 40% 1 06.04.2027 -
Taiga Hata Sint-Truiden Actif 121 / 130 40% 1 05.04.2027 -
Joris Chotard Stade Brestois Actif 124 / 133 40% 1 03.04.2027 -
Toby Collyer West Bromwich Albion Actif 141 / 130 40% 1 02.04.2027 -
Jackson Muleka Konyaspor Actif 145 / 115 40% 1 01.04.2027 -
Ali Ahmed Norwich City Actif 122 / 118 40% 1 31.03.2027 -
Bongani Zungu Ajax Cape Town Actif 118 / 123 40% 1 30.03.2027 -
Matisse Samoise KAA Gent Actif 115 / 135 40% 2 24.03.2027 -
Mohammed El Hankouri Standard Liege Actif 134 / 119 40% 1 24.03.2027 -
Anton Tanghe Zulte Waregem Actif 114 / 110 40% 1 23.03.2027 -
Yassin Belkhdim Angers SCO Actif 119 / 131 40% 1 22.03.2027 -
Andre Brooks Sheffield United Actif 120 / 136 40% 1 21.03.2027 -
Siebe Van der Heyden KAA Gent Actif 118 / 110 40% 1 20.03.2027 -
Yann Gboho Toulouse FC Actif 141 / 145 40% 1 19.03.2027 -
Timothy Witsel FC Metz Actif 126 / 143 40% 1 15.03.2027 -
Ronnie Edwards Queens Park Rangers Actif 132 / 137 40% 1 08.03.2027 -
Welington Southampton Actif 133 / 121 40% 1 06.03.2027 -
Ewoud Pletinckx OH Leuven Actif 120 / 106 40% 1 06.03.2027 -
Agustín Palavecino Cruz Azul Actif 153 / 122 40% 1 02.03.2027 -
Chris Lokesa Waasland-Beveren Actif 112 / 114 40% 1 02.03.2027 -
Max Johnston Derby County Actif 120 / 130 40% 1 01.03.2027 -
Tiago Araújo KAA Gent Actif 119 / 123 40% 1 01.03.2027 -